LEZGLEBB

Guest
Details From LEZG - Zaragoza Ab
To LEBB - Bilbao
Flight Number -
Tags Generated
Created
Modified
Stats Distance 129 nm / 239 km
Max Altitude 0 ft / 0 m
Waypoints 2
Social Downloads 1
Likes 0
Share VATSIM

Download

Looking for another format? Having issues loading an existing format? Contact us
Advertisement - Login to hide

Notes

Generated

Route

LEZG LEBB

ID Type Via Altitude Latitude Longitude Leg Dist Tot Dist Heading (true) Name
O LEZG APT - 0 ft / 0 m 41.66906˚ -1.03983˚ - 0 nm - Zaragoza AB
O LEBB APT - 0 ft / 0 m 43.30335˚ -2.93703˚ 129 nm 129 nm 320° / 319° -

Altitude Profile

Advertisement - Login to hide

LEZG

Details ICAO LEZG (ZAZ)
Name Zaragoza AB
Region Spain
Timezone Europe/Madrid (UTC+2.0)
Stats Elevation 862 ft / 263 m (AMSL)
Location 41.667030° -1.043559°
Runways 2
Magnetic Variation 0.040° E

METAR

LEZG 220430Z 26005KT 9999 FEW085 13/12 Q1013

Decode

TAF

TAF LEZG 212300Z 2200/2224 VRB03KT 9999 FEW030 TX29/2213Z TN15/2206Z BECMG 2203/2206 27008KT

Decode

Departure Runways

ID Width Length Bearing (true) Bearing (mag) Surface Threshold Offset Overrun Length
12L 148 ft / 45 m 9,934 ft / 3,028 m 120.12° 120.08° Asphalt 0 ft / 0 m 984 ft / 300 m
12R 148 ft / 45 m 12,181 ft / 3,713 m 120.10° 120.06° Asphalt 0 ft / 0 m 984 ft / 300 m
30L 148 ft / 45 m 12,181 ft / 3,713 m 300.12° 300.08° Asphalt 0 ft / 0 m 984 ft / 300 m
30R 148 ft / 45 m 9,934 ft / 3,028 m 300.14° 300.10° Asphalt 0 ft / 0 m 607 ft / 185 m

LEBB

Details ICAO LEBB (BIO)
Name Bilbao
Region Spain
Timezone Europe/Madrid (UTC+2.0)
Stats Elevation 137 ft / 42 m (AMSL)
Location 43.301692° -2.917664°
Runways 2
Magnetic Variation 0.575° W

METAR

LEBB 220430Z 11004KT 9000 NSC 11/10 Q1014 TEMPO 3000 BR

Decode

TAF

TAF LEBB 212300Z 2200/2224 10004KT CAVOK TX23/2214Z TN12/2206Z PROB40 TEMPO 2203/2208 3000 BR PROB40 TEMPO 2203/2208 1400 BCFG PROB30 TEMPO 2204/2207 0800 BCFG BKN002 BECMG 2212/2214 32010KT BECMG 2219/2221 10004KT

Decode

Destination Runways

ID Width Length Bearing (true) Bearing (mag) Surface Threshold Offset Overrun Length
10 148 ft / 45 m 6,569 ft / 2,002 m 96.66° 97.23° Asphalt 20 ft / 6 m 184 ft / 56 m
12 148 ft / 45 m 8,539 ft / 2,603 m 116.73° 117.30° Asphalt 20 ft / 6 m 197 ft / 60 m
28 148 ft / 45 m 6,569 ft / 2,002 m 276.68° 277.25° Asphalt 23 ft / 7 m 0 ft / 0 m
30 148 ft / 45 m 8,539 ft / 2,603 m 296.75° 297.32° Asphalt 1,509 ft / 460 m 171 ft / 52 m

Approach Navaids

Runway Type Ident Frequency Range Bearing (true) Bearing (mag) Slope Elevation
12 Localiser IBO 111.55 MHz 20 nm / 37 km 116.74° 117.31° - 113 ft / 34 m (AMSL)
12 Glidescope IBO 111.55 MHz 10 nm / 19 km 116.74° 117.31° 3.10° 133 ft / 41 m (AMSL)
12 DME IBO 111.55 MHz 13 nm / 24 km - - - 133 ft / 41 m (AMSL)
30 Localiser IBL 110.30 MHz 20 nm / 37 km 296.74° 297.31° - 106 ft / 32 m (AMSL)
30 Glidescope IBL 110.30 MHz 10 nm / 19 km 296.74° 297.31° 3.40° 133 ft / 41 m (AMSL)
30 DME IBL 110.30 MHz 13 nm / 24 km - - - 132 ft / 40 m (AMSL)

Popular Alternatives